createdAt,value
2022-09-28T00:02:54.044Z,5.67
2022-09-28T00:06:01.985Z,5.43
2022-09-28T00:09:17.203Z,5.50
2022-09-28T00:12:28.221Z,5.37
2022-09-28T00:15:32.488Z,5.50
2022-09-28T00:18:34.953Z,5.53
2022-09-28T00:21:37.517Z,5.20
2022-09-28T00:24:45.456Z,5.23
2022-09-28T00:27:57.196Z,6.63
2022-09-28T00:31:00.777Z,6.07
2022-09-28T00:34:05.306Z,6.10
2022-09-28T00:37:10.228Z,5.40
2022-09-28T00:40:22.042Z,5.57
2022-09-28T00:43:43.323Z,6.70
2022-09-28T00:46:37.716Z,6.30
2022-09-28T00:49:51.001Z,5.93
2022-09-28T00:56:14.085Z,6.20
2022-09-28T00:59:33.715Z,6.33
2022-09-28T01:02:32.691Z,6.57
2022-09-28T01:05:39.199Z,6.90
2022-09-28T01:08:51.787Z,6.77
2022-09-28T01:12:01.170Z,6.50
2022-09-28T01:15:03.150Z,6.80
2022-09-28T01:18:06.977Z,6.77
2022-09-28T01:27:41.095Z,7.30
2022-09-28T01:30:38.726Z,7.10
2022-09-28T01:33:41.212Z,6.70
2022-09-28T01:36:47.452Z,6.80
2022-09-28T01:40:13.699Z,6.40
2022-09-28T01:43:25.074Z,6.47
2022-09-28T01:46:24.197Z,6.60
2022-09-28T01:52:35.536Z,6.87
2022-09-28T01:55:50.213Z,6.27
2022-09-28T01:59:26.441Z,6.40
2022-09-28T02:02:38.028Z,6.50
2022-09-28T02:05:38.923Z,6.90
2022-09-28T02:09:06.853Z,7.27
2022-09-28T02:15:15.530Z,6.50
2022-09-28T02:18:26.773Z,6.47
2022-09-28T02:21:39.912Z,7.27
2022-09-28T02:24:43.693Z,6.10
2022-09-28T02:27:59.261Z,7.20
2022-09-28T02:30:55.113Z,7.10
2022-09-28T02:33:51.661Z,6.87
2022-09-28T02:37:01.259Z,7.10
2022-09-28T02:40:09.178Z,7.37
2022-09-28T02:43:13.543Z,7.40
2022-09-28T02:46:18.502Z,6.57
2022-09-28T02:49:26.397Z,7.00
2022-09-28T02:55:48.001Z,7.13
2022-09-28T02:58:56.588Z,6.93
2022-09-28T03:02:07.278Z,7.10
2022-09-28T03:05:12.758Z,7.30
2022-09-28T03:08:05.857Z,6.70
2022-09-28T03:11:15.459Z,7.30
2022-09-28T03:14:16.902Z,7.20
2022-09-28T03:17:12.933Z,7.67
2022-09-28T03:20:18.201Z,7.67
2022-09-28T03:26:57.652Z,6.50
2022-09-28T03:29:51.319Z,6.67
2022-09-28T03:33:07.934Z,7.27
2022-09-28T03:36:05.877Z,6.70
2022-09-28T03:39:06.965Z,7.00
2022-09-28T03:42:20.303Z,6.10
2022-09-28T03:45:28.435Z,6.80
2022-09-28T03:48:32.118Z,7.47
2022-09-28T03:54:57.613Z,7.23
2022-09-28T03:57:58.856Z,7.77
2022-09-28T04:01:18.485Z,6.73
2022-09-28T04:04:21.834Z,6.83
2022-09-28T04:07:31.448Z,6.60
2022-09-28T04:10:28.868Z,8.17
2022-09-28T04:13:34.969Z,7.47
2022-09-28T04:16:37.407Z,7.30
2022-09-28T04:19:58.538Z,7.10
2022-09-28T04:23:07.980Z,7.07
2022-09-28T04:26:09.797Z,7.37
2022-09-28T04:29:24.779Z,7.63
2022-09-28T04:32:34.069Z,7.87
2022-09-28T04:35:30.434Z,7.40
2022-09-28T04:38:59.110Z,6.67
2022-09-28T04:41:49.686Z,8.00
2022-09-28T04:44:49.316Z,8.53
2022-09-28T04:47:55.501Z,7.77
2022-09-28T04:51:00.601Z,8.13
2022-09-28T04:53:56.478Z,7.17
2022-09-28T05:00:15.656Z,8.00
2022-09-28T05:03:10.246Z,7.83
2022-09-28T05:06:03.321Z,8.00
2022-09-28T05:09:11.699Z,9.57
2022-09-28T05:12:15.970Z,7.90
2022-09-28T05:15:25.358Z,7.93
2022-09-28T05:18:26.629Z,11.30
2022-09-28T05:21:26.270Z,12.87
2022-09-28T05:24:31.202Z,14.70
2022-09-28T05:27:24.648Z,15.07
2022-09-28T05:30:35.433Z,14.40
2022-09-28T05:33:52.874Z,14.60
2022-09-28T05:36:59.718Z,14.27
2022-09-28T05:40:06.905Z,18.13
2022-09-28T05:43:18.049Z,15.87
2022-09-28T05:46:16.015Z,17.80
2022-09-28T05:49:31.350Z,17.77
2022-09-28T05:52:29.261Z,19.00
2022-09-28T05:55:43.758Z,19.30
2022-09-28T05:58:37.493Z,19.10
2022-09-28T06:01:29.262Z,17.70
2022-09-28T06:04:21.092Z,17.67
2022-09-28T06:07:14.144Z,20.13
2022-09-28T06:10:02.602Z,19.60
2022-09-28T06:12:57.769Z,18.57
2022-09-28T06:15:47.223Z,18.50
2022-09-28T06:18:36.182Z,19.10
2022-09-28T06:21:29.498Z,19.47
2022-09-28T06:24:19.818Z,18.23
2022-09-28T06:27:11.855Z,19.07
2022-09-28T06:30:11.001Z,19.47
2022-09-28T06:33:07.812Z,19.20
2022-09-28T06:35:58.981Z,19.80
2022-09-28T06:38:56.091Z,19.30
2022-09-28T06:41:51.069Z,18.30
2022-09-28T06:44:41.073Z,18.27
2022-09-28T06:47:31.538Z,18.83
2022-09-28T06:50:22.692Z,19.50
2022-09-28T06:53:14.568Z,18.80
2022-09-28T06:56:08.889Z,19.20
2022-09-28T06:59:07.220Z,17.90
2022-09-28T07:01:58.876Z,19.60
2022-09-28T07:04:48.647Z,17.27
2022-09-28T07:07:43.019Z,19.07
2022-09-28T07:10:32.404Z,17.90
2022-09-28T07:13:47.542Z,17.97
2022-09-28T07:17:05.104Z,17.97
2022-09-28T07:19:52.727Z,17.63
2022-09-28T07:22:50.780Z,17.40
2022-09-28T07:25:45.251Z,19.43
2022-09-28T07:28:41.493Z,21.37
2022-09-28T07:31:35.104Z,18.37
2022-09-28T07:34:25.499Z,17.30
2022-09-28T07:37:26.548Z,17.90
2022-09-28T07:40:33.912Z,17.73
2022-09-28T07:43:26.239Z,16.50
2022-09-28T07:46:20.401Z,17.17
2022-09-28T07:49:15.237Z,16.60
2022-09-28T07:52:03.826Z,17.47
2022-09-28T07:54:57.410Z,18.87
2022-09-28T07:57:48.102Z,19.87
2022-09-28T08:00:52.403Z,19.93
2022-09-28T08:03:45.808Z,19.13
2022-09-28T08:06:40.448Z,20.10
2022-09-28T08:09:35.292Z,20.23
2022-09-28T08:12:29.006Z,21.47
2022-09-28T08:15:17.564Z,18.50
2022-09-28T08:18:07.981Z,19.50
2022-09-28T08:21:15.356Z,19.00
2022-09-28T08:24:07.639Z,19.83
2022-09-28T08:27:04.353Z,21.57
2022-09-28T08:29:58.289Z,21.87
2022-09-28T08:32:52.166Z,21.20
2022-09-28T08:35:41.728Z,19.70
2022-09-28T08:38:34.328Z,20.20
2022-09-28T08:41:28.252Z,20.90
2022-09-28T08:44:26.069Z,20.57
2022-09-28T08:47:38.105Z,20.67
2022-09-28T08:50:30.382Z,19.50
2022-09-28T08:53:34.237Z,21.20
2022-09-28T08:56:42.316Z,19.60
2022-09-28T08:59:50.745Z,18.97
2022-09-28T09:02:46.438Z,19.23
2022-09-28T09:05:46.605Z,20.70
2022-09-28T09:08:41.352Z,18.40
2022-09-28T09:11:42.488Z,18.57
2022-09-28T09:14:58.809Z,17.70
2022-09-28T09:17:51.892Z,17.67
2022-09-28T09:20:48.129Z,18.70
2022-09-28T09:23:42.203Z,17.17
2022-09-28T09:26:40.915Z,15.73
2022-09-28T09:29:34.338Z,17.80
2022-09-28T09:32:36.715Z,17.70
2022-09-28T09:35:34.456Z,15.50
2022-09-28T09:38:33.888Z,15.43
2022-09-28T09:41:27.462Z,15.47
2022-09-28T09:44:26.828Z,16.20
2022-09-28T09:47:20.763Z,13.77
2022-09-28T09:50:18.643Z,14.80
2022-09-28T09:53:13.401Z,14.23
2022-09-28T09:56:04.186Z,15.30
2022-09-28T09:58:54.170Z,16.07
2022-09-28T10:01:51.298Z,15.97
2022-09-28T10:04:43.181Z,14.20
2022-09-28T10:07:35.310Z,15.30
2022-09-28T10:10:32.616Z,13.60
2022-09-28T10:13:31.561Z,12.30
2022-09-28T10:16:20.165Z,13.97
2022-09-28T10:19:12.476Z,11.53
2022-09-28T10:22:06.311Z,11.70
2022-09-28T10:24:58.371Z,12.07
2022-09-28T10:27:52.425Z,12.90
2022-09-28T10:30:44.651Z,12.80
2022-09-28T10:33:37.681Z,13.10
2022-09-28T10:36:27.646Z,12.87
2022-09-28T10:39:42.185Z,12.80
2022-09-28T10:42:34.093Z,11.30
2022-09-28T10:45:23.818Z,12.00
2022-09-28T10:48:18.225Z,9.30
2022-09-28T10:51:09.603Z,8.67
2022-09-28T10:54:05.136Z,8.27
2022-09-28T10:56:56.922Z,7.77
2022-09-28T10:59:46.776Z,7.67
2022-09-28T11:02:47.127Z,7.30
2022-09-28T11:05:47.978Z,7.33
2022-09-28T11:08:44.618Z,7.30
2022-09-28T11:11:41.385Z,6.33
2022-09-28T11:14:42.660Z,6.97
2022-09-28T11:17:33.849Z,5.67
2022-09-28T11:20:30.960Z,6.17
2022-09-28T11:23:24.179Z,5.47
2022-09-28T11:26:26.364Z,4.60
2022-09-28T11:29:32.016Z,3.80
2022-09-28T11:32:26.537Z,3.93
2022-09-28T11:35:23.334Z,3.70
2022-09-28T11:38:20.877Z,3.10
2022-09-28T11:41:37.685Z,2.93
2022-09-28T11:44:37.997Z,3.30
2022-09-28T11:47:48.390Z,3.07
2022-09-28T11:50:42.917Z,2.97
2022-09-28T11:53:36.512Z,3.63
2022-09-28T11:56:32.864Z,3.57
2022-09-28T11:59:33.993Z,2.73
2022-09-28T12:02:41.399Z,1.97
2022-09-28T12:05:43.945Z,2.60
2022-09-28T12:08:38.674Z,2.23
2022-09-28T12:11:33.415Z,2.90
2022-09-28T12:14:23.272Z,2.90
2022-09-28T12:17:19.962Z,2.27
2022-09-28T12:20:16.477Z,2.13
2022-09-28T12:23:18.062Z,2.10
2022-09-28T12:26:13.900Z,1.70
2022-09-28T12:29:07.451Z,1.23
2022-09-28T12:32:01.855Z,1.77
2022-09-28T12:34:50.394Z,1.40
2022-09-28T12:37:46.245Z,1.70
2022-09-28T12:40:43.094Z,1.27
2022-09-28T12:43:50.560Z,1.30
2022-09-28T12:46:52.440Z,1.20
2022-09-28T12:53:14.893Z,1.40
2022-09-28T12:56:11.281Z,1.30
2022-09-28T12:59:17.392Z,0.90
2022-09-28T13:02:44.551Z,1.00
2022-09-28T13:06:09.777Z,3.00
2022-09-28T13:09:18.589Z,1.10
2022-09-28T13:12:33.597Z,1.13
2022-09-28T13:15:36.717Z,2.40
2022-09-28T13:18:38.207Z,41.90
2022-09-28T13:21:42.610Z,9.30
2022-09-28T13:24:37.958Z,4.13
2022-09-28T13:27:36.307Z,2.40
2022-09-28T13:30:26.878Z,4.10
2022-09-28T13:33:22.636Z,4.00
2022-09-28T13:36:38.602Z,1.60
2022-09-28T13:39:48.614Z,1.43
2022-09-28T13:43:02.839Z,1.10
2022-09-28T13:45:58.700Z,1.70
2022-09-28T13:48:57.135Z,1.30
2022-09-28T13:51:58.816Z,1.30
2022-09-28T13:55:05.818Z,1.10
2022-09-28T13:58:00.582Z,1.30
2022-09-28T14:00:51.581Z,1.50
2022-09-28T14:03:55.317Z,1.20
2022-09-28T14:06:53.571Z,1.37
2022-09-28T14:09:48.967Z,1.60
2022-09-28T14:13:06.528Z,1.50
2022-09-28T14:16:28.096Z,1.43
2022-09-28T14:19:22.791Z,1.50
2022-09-28T14:22:26.810Z,1.40
2022-09-28T14:25:24.222Z,1.60
2022-09-28T14:28:42.586Z,1.40
2022-09-28T14:31:51.256Z,1.30
2022-09-28T14:34:44.162Z,1.30
2022-09-28T14:37:54.698Z,1.70
2022-09-28T14:41:13.456Z,1.77
2022-09-28T14:44:16.951Z,1.60
2022-09-28T14:47:34.570Z,1.30
2022-09-28T14:50:25.275Z,1.60
2022-09-28T14:53:21.668Z,1.40
2022-09-28T14:56:15.116Z,1.53
2022-09-28T14:59:09.119Z,1.77
2022-09-28T15:02:11.508Z,1.67
2022-09-28T15:05:17.682Z,1.30
2022-09-28T15:08:11.803Z,1.23
2022-09-28T15:11:01.874Z,1.40
2022-09-28T15:13:54.820Z,1.57
2022-09-28T15:16:55.276Z,1.30
2022-09-28T15:19:54.536Z,1.80
2022-09-28T15:22:57.112Z,1.27
2022-09-28T15:25:56.049Z,1.60
2022-09-28T15:28:48.399Z,1.83
2022-09-28T15:31:40.592Z,1.73
2022-09-28T15:34:55.804Z,2.10
2022-09-28T15:37:46.112Z,2.60
2022-09-28T15:40:38.771Z,2.70
2022-09-28T15:43:33.684Z,2.23
2022-09-28T15:46:22.025Z,2.13
2022-09-28T15:49:29.219Z,2.07
2022-09-28T15:52:30.033Z,2.30
2022-09-28T15:55:32.799Z,1.40
2022-09-28T15:58:27.342Z,1.57
2022-09-28T16:01:36.526Z,1.30
2022-09-28T16:04:39.955Z,1.50
2022-09-28T16:07:35.897Z,1.60
2022-09-28T16:10:33.755Z,1.90
2022-09-28T16:13:26.477Z,1.80
2022-09-28T16:16:17.647Z,1.77
2022-09-28T16:19:08.962Z,2.10
2022-09-28T16:22:00.133Z,2.30
2022-09-28T16:24:56.038Z,2.23
2022-09-28T16:27:53.298Z,2.70
2022-09-28T16:31:03.456Z,2.43
2022-09-28T16:33:58.946Z,2.53
2022-09-28T16:36:53.164Z,2.40
2022-09-28T16:39:41.260Z,2.80
2022-09-28T16:42:29.596Z,2.63
2022-09-28T16:45:23.397Z,2.60
2022-09-28T16:48:18.073Z,2.80
2022-09-28T16:51:06.876Z,2.90
2022-09-28T16:54:12.388Z,2.50
2022-09-28T16:57:06.505Z,3.03
2022-09-28T16:59:56.297Z,2.73
2022-09-28T17:02:48.991Z,3.33
2022-09-28T17:05:47.934Z,3.83
2022-09-28T17:08:36.267Z,4.20
2022-09-28T17:11:25.313Z,4.23
2022-09-28T17:14:13.978Z,4.53
2022-09-28T17:17:09.820Z,5.10
2022-09-28T17:19:59.761Z,4.97
2022-09-28T17:22:49.602Z,4.87
2022-09-28T17:25:38.210Z,5.30
2022-09-28T17:28:30.841Z,5.10
2022-09-28T17:31:19.105Z,4.83
2022-09-28T17:34:08.224Z,5.60
2022-09-28T17:36:56.313Z,5.33
2022-09-28T17:39:45.796Z,5.10
2022-09-28T17:42:33.874Z,5.60
2022-09-28T17:45:22.350Z,5.57
2022-09-28T17:48:15.653Z,5.30
2022-09-28T17:51:03.822Z,5.93
2022-09-28T17:53:52.546Z,5.20
2022-09-28T17:56:42.399Z,5.67
2022-09-28T17:59:31.257Z,5.90
2022-09-28T18:02:21.066Z,6.57
2022-09-28T18:05:10.868Z,6.60
2022-09-28T18:07:59.409Z,7.37
2022-09-28T18:10:48.071Z,6.87
2022-09-28T18:13:37.923Z,7.37
2022-09-28T18:16:27.878Z,7.33
2022-09-28T18:19:19.064Z,7.73
2022-09-28T18:22:07.197Z,7.27
2022-09-28T18:24:56.459Z,7.67
2022-09-28T18:31:19.356Z,7.67
2022-09-28T18:34:07.986Z,7.40
2022-09-28T18:39:25.086Z,9.10
2022-09-28T18:42:14.865Z,8.70
2022-09-28T18:45:03.152Z,7.63
2022-09-28T18:47:54.580Z,7.90
2022-09-28T18:50:43.256Z,7.50
2022-09-28T18:53:34.696Z,8.47
2022-09-28T18:56:23.361Z,8.60
2022-09-28T18:59:14.140Z,9.00
2022-09-28T19:02:02.571Z,9.30
2022-09-28T19:04:52.119Z,10.13
2022-09-28T19:07:40.482Z,10.50
2022-09-28T19:10:28.674Z,9.43
2022-09-28T19:13:16.856Z,10.20
2022-09-28T19:16:09.584Z,10.20
2022-09-28T19:18:58.213Z,10.17
2022-09-28T19:21:48.248Z,10.23
2022-09-28T19:24:36.491Z,9.83
2022-09-28T19:27:24.667Z,9.30
2022-09-28T19:30:13.925Z,10.33
2022-09-28T19:33:04.322Z,10.03
2022-09-28T19:36:01.374Z,10.70
2022-09-28T19:38:55.525Z,11.13
2022-09-28T19:41:56.722Z,11.73
2022-09-28T19:45:09.337Z,11.40
2022-09-28T19:48:04.308Z,10.27
2022-09-28T19:51:20.171Z,11.70
2022-09-28T19:54:20.529Z,11.27
2022-09-28T20:00:52.150Z,11.17
2022-09-28T20:04:00.497Z,11.50
2022-09-28T20:07:10.492Z,11.03
2022-09-28T20:10:30.467Z,11.17
2022-09-28T20:13:41.081Z,11.70
2022-09-28T20:16:43.058Z,11.83
2022-09-28T20:20:04.430Z,12.17
2022-09-28T20:23:28.451Z,12.10
2022-09-28T20:26:44.292Z,12.00
2022-09-28T20:29:50.421Z,12.47
2022-09-28T20:33:19.112Z,13.13
2022-09-28T20:36:48.613Z,13.63
2022-09-28T20:43:33.998Z,13.77
2022-09-28T20:46:30.530Z,13.77
2022-09-28T20:49:31.735Z,13.80
2022-09-28T20:52:28.522Z,14.37
2022-09-28T20:55:30.364Z,14.00
2022-09-28T21:01:52.939Z,13.50
2022-09-28T21:04:58.840Z,13.40
2022-09-28T21:07:52.583Z,12.70
2022-09-28T21:10:58.768Z,14.90
2022-09-28T21:14:11.480Z,13.60
2022-09-28T21:17:24.049Z,13.47
2022-09-28T21:20:26.060Z,13.40
2022-09-28T21:26:29.593Z,13.13
2022-09-28T21:29:42.856Z,14.10
2022-09-28T21:32:55.874Z,12.53
2022-09-28T21:36:06.588Z,12.70
2022-09-28T21:39:10.376Z,12.80
2022-09-28T21:45:31.058Z,12.97
2022-09-28T21:48:41.698Z,12.40
2022-09-28T21:51:54.164Z,13.00
2022-09-28T21:55:04.578Z,12.47
2022-09-28T21:58:03.192Z,11.90
2022-09-28T22:01:16.133Z,11.20
2022-09-28T22:04:26.572Z,10.67
2022-09-28T22:07:21.986Z,11.27
2022-09-28T22:10:50.727Z,11.77
2022-09-28T22:14:10.965Z,10.67
2022-09-28T22:17:08.957Z,11.43
2022-09-28T22:20:28.644Z,11.10
2022-09-28T22:23:40.487Z,10.87
2022-09-28T22:26:40.506Z,10.60
2022-09-28T22:29:43.098Z,9.90
2022-09-28T22:33:00.403Z,10.30
2022-09-28T22:36:01.461Z,10.50
2022-09-28T22:39:09.501Z,10.07
2022-09-28T22:42:10.431Z,9.80
2022-09-28T22:45:07.644Z,9.70
2022-09-28T22:48:29.636Z,9.90
2022-09-28T22:51:50.699Z,9.63
2022-09-28T22:54:42.175Z,9.87
2022-09-28T22:57:37.223Z,10.10
2022-09-28T23:00:34.096Z,9.77
2022-09-28T23:03:33.137Z,9.43
2022-09-28T23:06:40.656Z,10.20
2022-09-28T23:10:00.130Z,10.00
2022-09-28T23:13:07.443Z,10.03
2022-09-28T23:16:15.341Z,10.67
2022-09-28T23:19:20.247Z,9.57
2022-09-28T23:22:20.408Z,9.30
2022-09-28T23:25:24.319Z,10.13
2022-09-28T23:28:20.647Z,11.63
2022-09-28T23:31:28.455Z,10.03
2022-09-28T23:34:50.111Z,10.10
2022-09-28T23:37:47.231Z,10.50
2022-09-28T23:41:13.637Z,11.30
2022-09-28T23:44:22.931Z,10.23
2022-09-28T23:47:15.396Z,9.73
2022-09-28T23:50:10.881Z,10.67
2022-09-28T23:53:19.900Z,9.70
2022-09-28T23:56:21.257Z,10.73
